createdAt,value
2023-05-15T00:02:18.193Z,100.00
2023-05-15T00:04:45.055Z,100.00
2023-05-15T00:07:12.290Z,100.00
2023-05-15T00:09:41.615Z,100.00
2023-05-15T00:12:08.907Z,100.00
2023-05-15T00:14:36.347Z,100.00
2023-05-15T00:17:03.049Z,100.00
2023-05-15T00:19:30.191Z,100.00
2023-05-15T00:21:56.997Z,100.00
2023-05-15T00:24:23.923Z,100.00
2023-05-15T00:26:50.853Z,100.00
2023-05-15T00:29:17.643Z,100.00
2023-05-15T00:31:44.565Z,100.00
2023-05-15T00:34:11.340Z,100.00
2023-05-15T00:36:38.125Z,100.00
2023-05-15T00:39:06.017Z,100.00
2023-05-15T00:41:35.487Z,100.00
2023-05-15T00:44:03.164Z,100.00
2023-05-15T00:46:34.763Z,100.00
2023-05-15T00:49:05.258Z,100.00
2023-05-15T00:51:38.112Z,100.00
2023-05-15T00:54:05.768Z,100.00
2023-05-15T00:56:34.396Z,100.00
2023-05-15T00:59:04.146Z,100.00
2023-05-15T01:01:34.639Z,100.00
2023-05-15T01:04:02.993Z,100.00
2023-05-15T01:06:32.601Z,100.00
2023-05-15T01:09:02.128Z,100.00
2023-05-15T01:11:36.099Z,100.00
2023-05-15T01:14:06.348Z,100.00
2023-05-15T01:16:35.830Z,100.00
2023-05-15T01:19:04.207Z,100.00
2023-05-15T01:21:37.370Z,100.00
2023-05-15T01:24:50.807Z,100.00
2023-05-15T01:27:35.542Z,100.00
2023-05-15T01:30:23.614Z,100.00
2023-05-15T01:33:27.157Z,100.00
2023-05-15T01:36:07.953Z,100.00
2023-05-15T01:38:55.959Z,100.00
2023-05-15T01:41:29.856Z,100.00
2023-05-15T01:44:11.639Z,100.00
2023-05-15T01:46:48.612Z,100.00
2023-05-15T01:49:20.046Z,100.00
2023-05-15T01:51:51.579Z,100.00
2023-05-15T01:54:19.601Z,100.00
2023-05-15T01:56:46.554Z,100.00
2023-05-15T01:59:15.753Z,100.00
2023-05-15T02:01:45.532Z,100.00
2023-05-15T02:04:14.170Z,100.00
2023-05-15T02:06:41.516Z,100.00
2023-05-15T02:09:09.795Z,100.00
2023-05-15T02:11:37.618Z,100.00
2023-05-15T02:14:05.522Z,100.00
2023-05-15T02:16:32.407Z,100.00
2023-05-15T02:18:59.433Z,100.00
2023-05-15T02:21:26.308Z,100.00
2023-05-15T02:23:53.077Z,100.00
2023-05-15T02:26:35.579Z,100.00
2023-05-15T02:29:17.554Z,100.00
2023-05-15T02:32:29.185Z,100.00
2023-05-15T02:35:13.984Z,100.00
2023-05-15T02:37:47.966Z,100.00
2023-05-15T02:40:16.799Z,100.00
2023-05-15T02:42:49.314Z,100.00
2023-05-15T02:45:20.636Z,100.00
2023-05-15T02:47:50.435Z,100.00
2023-05-15T02:50:18.721Z,100.00
2023-05-15T02:52:48.160Z,100.00
2023-05-15T02:55:15.353Z,100.00
2023-05-15T02:57:42.279Z,100.00
2023-05-15T03:00:13.315Z,100.00
2023-05-15T03:02:40.065Z,100.00
2023-05-15T03:05:07.426Z,100.00
2023-05-15T03:07:34.702Z,100.00
2023-05-15T03:10:01.458Z,100.00
2023-05-15T03:12:28.440Z,100.00
2023-05-15T03:14:55.221Z,100.00
2023-05-15T03:17:23.126Z,100.00
2023-05-15T03:19:50.415Z,100.00
2023-05-15T03:22:17.217Z,100.00
2023-05-15T03:24:44.305Z,100.00
2023-05-15T03:27:11.154Z,100.00
2023-05-15T03:29:38.776Z,100.00
2023-05-15T03:32:05.984Z,100.00
2023-05-15T03:34:37.123Z,100.00
2023-05-15T03:37:03.910Z,100.00
2023-05-15T03:39:30.674Z,100.00
2023-05-15T03:41:57.361Z,100.00
2023-05-15T03:44:24.598Z,100.00
2023-05-15T03:46:52.588Z,100.00
2023-05-15T03:49:19.420Z,100.00
2023-05-15T03:51:46.224Z,100.00
2023-05-15T03:54:12.958Z,100.00
2023-05-15T03:56:39.836Z,100.00
2023-05-15T03:59:06.700Z,100.00
2023-05-15T04:01:37.689Z,100.00
2023-05-15T04:04:11.010Z,100.00
2023-05-15T04:06:37.985Z,100.00
2023-05-15T04:09:04.784Z,100.00
2023-05-15T04:11:31.704Z,100.00
2023-05-15T04:13:58.418Z,100.00
2023-05-15T04:16:25.229Z,100.00
2023-05-15T04:18:52.271Z,100.00
2023-05-15T04:21:19.369Z,100.00
2023-05-15T04:23:46.111Z,100.00
2023-05-15T04:26:13.037Z,100.00
2023-05-15T04:28:41.511Z,100.00
2023-05-15T04:31:13.832Z,100.00
2023-05-15T04:33:40.578Z,100.00
2023-05-15T04:36:08.705Z,100.00
2023-05-15T04:38:37.075Z,100.00
2023-05-15T04:41:03.841Z,100.00
2023-05-15T04:43:31.490Z,100.00
2023-05-15T04:45:58.446Z,100.00
2023-05-15T04:48:25.400Z,100.00
2023-05-15T04:50:52.335Z,100.00
2023-05-15T04:53:19.138Z,100.00
2023-05-15T04:55:46.601Z,100.00
2023-05-15T04:58:13.700Z,100.00
2023-05-15T05:00:40.902Z,100.00
2023-05-15T05:03:07.771Z,100.00
2023-05-15T05:05:34.610Z,100.00
2023-05-15T05:08:01.332Z,100.00
2023-05-15T05:10:28.055Z,100.00
2023-05-15T05:12:55.483Z,100.00
2023-05-15T05:15:22.502Z,100.00
2023-05-15T05:17:49.553Z,100.00
2023-05-15T05:20:16.330Z,100.00
2023-05-15T05:22:43.100Z,100.00
2023-05-15T05:25:10.246Z,100.00
2023-05-15T05:27:37.038Z,100.00
2023-05-15T05:30:04.340Z,100.00
2023-05-15T05:32:31.123Z,100.00
2023-05-15T05:34:57.888Z,100.00
2023-05-15T05:37:24.712Z,100.00
2023-05-15T05:39:51.766Z,100.00
2023-05-15T05:42:21.289Z,100.00
2023-05-15T05:44:48.075Z,100.00
2023-05-15T05:47:14.907Z,100.00
2023-05-15T05:49:47.102Z,100.00
2023-05-15T05:52:14.140Z,100.00
2023-05-15T05:54:41.394Z,100.00
2023-05-15T05:57:09.653Z,100.00
2023-05-15T05:59:37.293Z,100.00
2023-05-15T06:02:05.012Z,100.00
2023-05-15T06:04:34.102Z,100.00
2023-05-15T06:07:01.167Z,100.00
2023-05-15T06:09:28.097Z,100.00
2023-05-15T06:11:55.330Z,100.00
2023-05-15T06:14:22.106Z,100.00
2023-05-15T06:16:49.041Z,100.00
2023-05-15T06:19:16.209Z,100.00
2023-05-15T06:21:45.554Z,100.00
2023-05-15T06:24:14.093Z,100.00
2023-05-15T06:26:40.882Z,100.00
2023-05-15T06:29:07.850Z,100.00
2023-05-15T06:31:34.950Z,100.00
2023-05-15T06:34:01.833Z,100.00
2023-05-15T06:36:31.400Z,100.00
2023-05-15T06:38:58.195Z,100.00
2023-05-15T06:41:25.093Z,100.00
2023-05-15T06:43:51.851Z,100.00
2023-05-15T06:46:19.142Z,100.00
2023-05-15T06:48:47.175Z,100.00
2023-05-15T06:51:14.137Z,100.00
2023-05-15T06:53:42.244Z,100.00
2023-05-15T06:56:09.281Z,100.00
2023-05-15T06:58:36.095Z,100.00
2023-05-15T07:01:03.930Z,100.00
2023-05-15T07:03:30.966Z,100.00
2023-05-15T07:05:57.806Z,100.00
2023-05-15T07:08:24.715Z,100.00
2023-05-15T07:10:51.556Z,99.87
2023-05-15T07:13:20.658Z,98.19
2023-05-15T07:15:47.538Z,96.94
2023-05-15T07:18:14.458Z,98.91
2023-05-15T07:20:41.294Z,97.18
2023-05-15T07:23:07.999Z,96.34
2023-05-15T07:25:34.877Z,97.92
2023-05-15T07:28:01.728Z,97.90
2023-05-15T07:30:28.660Z,96.73
2023-05-15T07:32:55.925Z,97.50
2023-05-15T07:35:22.945Z,98.37
2023-05-15T07:37:49.869Z,94.63
2023-05-15T07:40:16.617Z,94.85
2023-05-15T07:42:46.988Z,91.28
2023-05-15T07:45:13.799Z,92.01
2023-05-15T07:47:49.035Z,90.82
2023-05-15T07:50:17.194Z,88.82
2023-05-15T07:52:44.933Z,90.42
2023-05-15T07:55:12.605Z,89.47
2023-05-15T07:57:42.263Z,87.50
2023-05-15T08:00:12.554Z,87.02
2023-05-15T08:02:40.914Z,86.41
2023-05-15T08:05:08.475Z,85.17
2023-05-15T08:07:35.575Z,81.17
2023-05-15T08:10:06.321Z,82.12
2023-05-15T08:12:33.791Z,84.14
2023-05-15T08:15:00.901Z,84.31
2023-05-15T08:17:27.989Z,78.72
2023-05-15T08:19:55.820Z,80.88
2023-05-15T08:22:22.716Z,79.82
2023-05-15T08:24:49.554Z,79.00
2023-05-15T08:27:16.556Z,76.63
2023-05-15T08:29:43.969Z,73.89
2023-05-15T08:32:10.916Z,72.43
2023-05-15T08:34:38.968Z,75.97
2023-05-15T08:37:06.793Z,74.21
2023-05-15T08:39:33.735Z,78.10
2023-05-15T08:42:34.554Z,72.03
2023-05-15T08:45:02.920Z,73.98
2023-05-15T08:47:36.848Z,77.99
2023-05-15T08:50:14.394Z,72.84
2023-05-15T08:52:45.404Z,69.78
2023-05-15T08:55:13.701Z,73.18
2023-05-15T08:57:41.211Z,65.43
2023-05-15T09:00:11.810Z,66.98
2023-05-15T09:02:39.780Z,67.52
2023-05-15T09:05:08.315Z,69.17
2023-05-15T09:07:35.895Z,68.78
2023-05-15T09:10:04.311Z,71.54
2023-05-15T09:12:34.775Z,67.58
2023-05-15T09:15:31.109Z,69.86
2023-05-15T09:17:59.145Z,69.33
2023-05-15T09:20:35.845Z,67.66
2023-05-15T09:23:06.035Z,67.15
2023-05-15T09:25:44.763Z,69.08
2023-05-15T09:28:29.647Z,69.46
2023-05-15T09:31:03.951Z,65.67
2023-05-15T09:33:37.606Z,68.42
2023-05-15T09:36:07.986Z,65.48
2023-05-15T09:38:42.666Z,67.74
2023-05-15T09:41:10.157Z,69.16
2023-05-15T09:43:40.221Z,68.37
2023-05-15T09:46:08.775Z,66.56
2023-05-15T09:48:35.899Z,67.29
2023-05-15T09:51:03.375Z,67.00
2023-05-15T09:53:31.768Z,69.01
2023-05-15T09:56:02.893Z,69.11
2023-05-15T09:58:30.170Z,68.37
2023-05-15T10:01:00.878Z,64.30
2023-05-15T10:03:27.755Z,68.18
2023-05-15T10:06:03.500Z,60.20
2023-05-15T10:08:30.500Z,56.13
2023-05-15T10:11:03.147Z,54.87
2023-05-15T10:13:31.759Z,53.24
2023-05-15T10:16:02.022Z,56.25
2023-05-15T10:18:33.613Z,55.23
2023-05-15T10:21:04.118Z,54.24
2023-05-15T10:23:34.670Z,52.60
2023-05-15T10:26:10.990Z,53.57
2023-05-15T10:28:38.978Z,52.76
2023-05-15T10:31:07.055Z,54.47
2023-05-15T10:33:36.627Z,49.53
2023-05-15T10:36:05.190Z,53.37
2023-05-15T10:38:34.179Z,47.09
2023-05-15T10:41:16.129Z,46.54
2023-05-15T10:43:44.376Z,48.31
2023-05-15T10:46:11.643Z,51.34
2023-05-15T10:48:40.230Z,51.41
2023-05-15T10:51:24.281Z,51.49
2023-05-15T10:53:52.013Z,52.01
2023-05-15T10:56:18.937Z,53.48
2023-05-15T10:58:54.937Z,50.14
2023-05-15T11:01:35.053Z,47.45
2023-05-15T11:04:17.545Z,47.21
2023-05-15T11:06:47.722Z,49.28
2023-05-15T11:09:34.648Z,45.23
2023-05-15T11:12:04.772Z,47.00
2023-05-15T11:14:51.905Z,47.87
2023-05-15T11:17:18.787Z,46.36
2023-05-15T11:19:58.210Z,48.27
2023-05-15T11:22:38.752Z,47.82
2023-05-15T11:25:14.148Z,43.40
2023-05-15T11:27:46.247Z,42.42
2023-05-15T11:30:25.811Z,42.52
2023-05-15T11:33:08.494Z,47.61
2023-05-15T11:35:45.910Z,45.89
2023-05-15T11:38:20.156Z,44.23
2023-05-15T11:40:49.719Z,42.32
2023-05-15T11:43:32.367Z,43.77
2023-05-15T11:46:09.544Z,40.16
2023-05-15T11:48:41.622Z,39.05
2023-05-15T11:51:25.280Z,37.91
2023-05-15T11:53:57.393Z,35.40
2023-05-15T11:56:29.836Z,35.19
2023-05-15T11:58:59.491Z,36.03
2023-05-15T12:01:26.875Z,40.33
2023-05-15T12:03:54.934Z,40.78
2023-05-15T12:06:22.891Z,42.28
2023-05-15T12:08:53.634Z,40.25
2023-05-15T12:11:24.113Z,40.17
2023-05-15T12:13:54.983Z,41.72
2023-05-15T12:16:29.086Z,40.52
2023-05-15T12:18:59.791Z,41.33
2023-05-15T12:21:27.492Z,43.36
2023-05-15T12:26:29.717Z,39.26
2023-05-15T12:28:56.916Z,38.96
2023-05-15T12:31:24.188Z,37.99
2023-05-15T12:33:51.218Z,38.80
2023-05-15T12:36:21.359Z,40.56
2023-05-15T12:38:48.979Z,50.50
2023-05-15T12:41:16.079Z,41.24
2023-05-15T12:43:42.981Z,42.03
2023-05-15T12:46:13.160Z,43.25
2023-05-15T12:48:41.021Z,43.90
2023-05-15T12:51:08.569Z,45.42
2023-05-15T12:53:36.505Z,44.23
2023-05-15T12:56:04.547Z,44.80
2023-05-15T12:58:31.439Z,45.20
2023-05-15T13:00:58.928Z,45.13
2023-05-15T13:03:27.898Z,45.31
2023-05-15T13:05:55.458Z,45.34
2023-05-15T13:08:22.739Z,46.14
2023-05-15T13:10:58.598Z,48.19
2023-05-15T13:13:47.415Z,45.71
2023-05-15T13:16:29.779Z,45.87
2023-05-15T13:18:58.747Z,45.99
2023-05-15T13:21:26.093Z,44.24
2023-05-15T13:23:53.043Z,43.85
2023-05-15T13:26:20.104Z,43.67
2023-05-15T13:28:47.000Z,45.52
2023-05-15T13:31:13.913Z,45.08
2023-05-15T13:33:41.632Z,45.63
2023-05-15T13:36:08.979Z,45.27
2023-05-15T13:38:35.844Z,45.26
2023-05-15T13:41:04.115Z,45.19
2023-05-15T13:43:31.462Z,47.53
2023-05-15T13:45:58.244Z,43.24
2023-05-15T13:48:25.145Z,43.16
2023-05-15T13:50:52.040Z,42.64
2023-05-15T13:53:18.957Z,41.77
2023-05-15T13:55:47.078Z,40.58
2023-05-15T13:58:14.302Z,38.48
2023-05-15T14:00:45.147Z,36.90
2023-05-15T14:03:14.958Z,36.31
2023-05-15T14:05:43.027Z,35.63
2023-05-15T14:08:09.862Z,34.79
2023-05-15T14:10:39.948Z,34.72
2023-05-15T14:13:06.737Z,34.26
2023-05-15T14:15:33.555Z,34.61
2023-05-15T14:18:00.386Z,33.96
2023-05-15T14:20:27.659Z,34.42
2023-05-15T14:22:54.625Z,34.78
2023-05-15T14:25:21.455Z,34.21
2023-05-15T14:27:48.280Z,34.37
2023-05-15T14:30:15.568Z,35.65
2023-05-15T14:32:42.414Z,36.65
2023-05-15T14:35:09.242Z,36.88
2023-05-15T14:37:37.138Z,37.49
2023-05-15T14:40:05.224Z,38.24
2023-05-15T14:42:32.699Z,39.53
2023-05-15T14:44:59.821Z,40.68
2023-05-15T14:47:28.285Z,41.64
2023-05-15T14:49:55.693Z,42.34
2023-05-15T14:52:22.762Z,47.09
2023-05-15T14:55:00.499Z,45.79
2023-05-15T14:57:34.662Z,46.91
2023-05-15T15:00:01.659Z,48.03
2023-05-15T15:02:28.491Z,48.53
2023-05-15T15:04:55.384Z,48.67
2023-05-15T15:07:22.399Z,49.15
2023-05-15T15:09:49.197Z,49.04
2023-05-15T15:12:17.344Z,48.78
2023-05-15T15:14:44.157Z,48.63
2023-05-15T15:17:10.912Z,48.03
2023-05-15T15:19:37.667Z,47.33
2023-05-15T15:22:04.748Z,47.31
2023-05-15T15:24:31.624Z,47.47
2023-05-15T15:26:58.513Z,47.85
2023-05-15T15:29:25.379Z,46.20
2023-05-15T15:31:52.194Z,44.38
2023-05-15T15:34:19.089Z,43.87
2023-05-15T15:36:46.118Z,44.69
2023-05-15T15:39:13.269Z,44.46
2023-05-15T15:41:40.098Z,44.87
2023-05-15T15:44:07.027Z,45.30
2023-05-15T15:46:33.920Z,45.01
2023-05-15T15:49:00.975Z,45.17
2023-05-15T15:51:27.975Z,45.45
2023-05-15T15:53:54.821Z,45.71
2023-05-15T15:56:22.222Z,46.67
2023-05-15T15:58:49.103Z,46.98
2023-05-15T16:01:16.618Z,47.84
2023-05-15T16:03:43.459Z,48.62
2023-05-15T16:06:10.584Z,49.10
2023-05-15T16:08:37.441Z,50.13
2023-05-15T16:11:04.269Z,53.92
2023-05-15T16:13:31.135Z,57.72
2023-05-15T16:15:58.044Z,59.49
2023-05-15T16:18:24.869Z,60.45
2023-05-15T16:20:51.628Z,59.49
2023-05-15T16:23:19.718Z,58.46
2023-05-15T16:25:46.669Z,58.02
2023-05-15T16:28:13.910Z,57.89
2023-05-15T16:30:48.688Z,58.10
2023-05-15T16:33:18.587Z,57.90
2023-05-15T16:35:46.260Z,56.96
2023-05-15T16:38:13.873Z,57.49
2023-05-15T16:40:41.312Z,58.81
2023-05-15T16:43:08.290Z,58.51
2023-05-15T16:45:35.107Z,58.23
2023-05-15T16:48:02.351Z,56.52
2023-05-15T16:50:31.248Z,54.48
2023-05-15T16:52:58.880Z,54.21
2023-05-15T16:55:25.741Z,53.54
2023-05-15T16:57:52.597Z,53.46
2023-05-15T17:00:20.898Z,53.57
2023-05-15T17:02:48.231Z,53.93
2023-05-15T17:05:15.653Z,53.56
2023-05-15T17:07:44.401Z,53.55
2023-05-15T17:10:12.524Z,53.89
2023-05-15T17:12:39.759Z,55.22
2023-05-15T17:15:07.696Z,55.72
2023-05-15T17:17:34.644Z,56.39
2023-05-15T17:20:03.070Z,57.10
2023-05-15T17:22:30.392Z,57.53
2023-05-15T17:24:57.510Z,58.07
2023-05-15T17:27:24.442Z,58.16
2023-05-15T17:29:51.481Z,58.69
2023-05-15T17:32:18.840Z,58.71
2023-05-15T17:34:46.294Z,58.98
2023-05-15T17:37:14.197Z,60.66
2023-05-15T17:39:41.197Z,60.69
2023-05-15T17:42:08.052Z,60.35
2023-05-15T17:44:34.967Z,60.50
2023-05-15T17:47:01.857Z,60.53
2023-05-15T17:49:28.743Z,60.49
2023-05-15T17:51:55.868Z,60.73
2023-05-15T17:54:22.739Z,60.94
2023-05-15T17:56:49.618Z,60.27
2023-05-15T17:59:16.463Z,60.76
2023-05-15T18:01:43.393Z,61.50
2023-05-15T18:04:10.546Z,65.26
2023-05-15T18:06:37.972Z,70.55
2023-05-15T18:09:05.044Z,72.77
2023-05-15T18:11:32.120Z,84.30
2023-05-15T18:13:59.090Z,88.62
2023-05-15T18:16:26.418Z,93.14
2023-05-15T18:18:55.618Z,93.77
2023-05-15T18:21:25.336Z,97.31
2023-05-15T18:23:52.250Z,100.00
2023-05-15T18:26:19.311Z,100.00
2023-05-15T18:28:48.696Z,100.00
2023-05-15T18:31:18.801Z,100.00
2023-05-15T18:33:51.464Z,100.00
2023-05-15T18:36:18.596Z,100.00
2023-05-15T18:38:45.569Z,100.00
2023-05-15T18:41:12.360Z,100.00
2023-05-15T18:43:40.294Z,100.00
2023-05-15T18:46:06.999Z,100.00
2023-05-15T18:48:33.978Z,100.00
2023-05-15T18:51:01.036Z,100.00
2023-05-15T18:53:28.646Z,100.00
2023-05-15T18:55:55.484Z,100.00
2023-05-15T18:58:22.254Z,100.00
2023-05-15T19:00:49.079Z,100.00
2023-05-15T19:03:21.018Z,100.00
2023-05-15T19:05:50.510Z,100.00
2023-05-15T19:08:17.525Z,100.00
2023-05-15T19:10:48.949Z,100.00
2023-05-15T19:13:16.363Z,100.00
2023-05-15T19:15:53.909Z,100.00
2023-05-15T19:18:21.612Z,100.00
2023-05-15T19:20:56.022Z,100.00
2023-05-15T19:23:23.794Z,100.00
2023-05-15T19:25:51.143Z,100.00
2023-05-15T19:28:17.988Z,100.00
2023-05-15T19:30:44.895Z,100.00
2023-05-15T19:33:12.828Z,100.00
2023-05-15T19:35:40.350Z,100.00
2023-05-15T19:38:07.645Z,100.00
2023-05-15T19:40:38.571Z,100.00
2023-05-15T19:43:08.041Z,100.00
2023-05-15T19:45:34.921Z,100.00
2023-05-15T19:48:02.231Z,100.00
2023-05-15T19:50:31.977Z,100.00
2023-05-15T19:53:00.032Z,100.00
2023-05-15T19:55:27.026Z,100.00
2023-05-15T19:57:56.530Z,100.00
2023-05-15T20:00:23.669Z,100.00
2023-05-15T20:02:50.925Z,100.00
2023-05-15T20:05:17.999Z,100.00
2023-05-15T20:07:47.905Z,100.00
2023-05-15T20:10:18.496Z,100.00
2023-05-15T20:12:46.603Z,100.00
2023-05-15T20:15:14.802Z,100.00
2023-05-15T20:17:44.962Z,100.00
2023-05-15T20:20:12.458Z,100.00
2023-05-15T20:22:44.432Z,100.00
2023-05-15T20:25:11.378Z,100.00
2023-05-15T20:27:38.742Z,100.00
2023-05-15T20:30:06.929Z,100.00
2023-05-15T20:32:34.843Z,100.00
2023-05-15T20:35:02.468Z,100.00
2023-05-15T20:37:30.625Z,100.00
2023-05-15T20:39:57.980Z,100.00
2023-05-15T20:42:27.784Z,100.00
2023-05-15T20:44:54.863Z,100.00
2023-05-15T20:47:24.483Z,100.00
2023-05-15T20:49:51.319Z,100.00
2023-05-15T20:52:18.179Z,100.00
2023-05-15T20:54:45.108Z,100.00
2023-05-15T20:57:11.998Z,100.00
2023-05-15T20:59:38.842Z,100.00
2023-05-15T21:02:05.706Z,100.00
2023-05-15T21:04:35.006Z,100.00
2023-05-15T21:07:05.454Z,100.00
2023-05-15T21:09:33.251Z,100.00
2023-05-15T21:12:00.112Z,100.00
2023-05-15T21:14:27.131Z,100.00
2023-05-15T21:16:54.351Z,100.00
2023-05-15T21:19:21.858Z,100.00
2023-05-15T21:21:48.668Z,100.00
2023-05-15T21:24:16.630Z,100.00
2023-05-15T21:26:43.363Z,100.00
2023-05-15T21:29:10.187Z,100.00
2023-05-15T21:31:37.083Z,100.00
2023-05-15T21:34:03.889Z,100.00
2023-05-15T21:36:31.340Z,100.00
2023-05-15T21:38:58.276Z,100.00
2023-05-15T21:41:26.389Z,100.00
2023-05-15T21:43:53.692Z,100.00
2023-05-15T21:46:20.532Z,100.00
2023-05-15T21:48:51.099Z,100.00
2023-05-15T21:51:18.224Z,100.00
2023-05-15T21:53:45.347Z,100.00
2023-05-15T21:56:12.194Z,100.00
2023-05-15T21:58:39.091Z,100.00
2023-05-15T22:01:06.160Z,100.00
2023-05-15T22:03:33.150Z,100.00
2023-05-15T22:06:00.185Z,100.00
2023-05-15T22:08:27.132Z,100.00
2023-05-15T22:10:54.502Z,100.00
2023-05-15T22:13:21.459Z,100.00
2023-05-15T22:15:48.229Z,100.00
2023-05-15T22:18:17.633Z,100.00
2023-05-15T22:20:47.570Z,100.00
2023-05-15T22:23:15.083Z,100.00
2023-05-15T22:25:42.086Z,100.00
2023-05-15T22:28:08.833Z,100.00
2023-05-15T22:30:35.802Z,100.00
2023-05-15T22:33:02.608Z,100.00
2023-05-15T22:35:30.016Z,100.00
2023-05-15T22:37:57.042Z,100.00
2023-05-15T22:40:25.255Z,100.00
2023-05-15T22:42:52.302Z,100.00
2023-05-15T22:45:21.925Z,100.00
2023-05-15T22:47:51.165Z,100.00
2023-05-15T22:50:18.323Z,100.00
2023-05-15T22:52:45.232Z,100.00
2023-05-15T22:55:13.174Z,100.00
2023-05-15T22:57:40.514Z,100.00
2023-05-15T23:00:10.008Z,100.00
2023-05-15T23:02:42.636Z,100.00
2023-05-15T23:05:11.316Z,100.00
2023-05-15T23:07:38.209Z,100.00
2023-05-15T23:10:06.063Z,100.00
2023-05-15T23:12:33.182Z,100.00
2023-05-15T23:14:59.957Z,100.00
2023-05-15T23:17:26.806Z,100.00
2023-05-15T23:19:53.594Z,100.00
2023-05-15T23:22:20.332Z,100.00
2023-05-15T23:24:47.337Z,100.00
2023-05-15T23:27:16.892Z,100.00
2023-05-15T23:29:43.634Z,100.00
2023-05-15T23:32:10.545Z,100.00
2023-05-15T23:34:37.726Z,100.00
2023-05-15T23:37:04.743Z,100.00
2023-05-15T23:39:31.758Z,100.00
2023-05-15T23:41:59.894Z,100.00
2023-05-15T23:44:26.696Z,100.00
2023-05-15T23:46:53.527Z,100.00
2023-05-15T23:49:20.394Z,100.00
2023-05-15T23:51:47.127Z,100.00
2023-05-15T23:54:13.881Z,100.00
2023-05-15T23:56:41.282Z,100.00
2023-05-15T23:59:08.320Z,100.00
